sensor_id;sensor_type;location;lat;lon;timestamp;temperature;humidity
70734;DHT22;58320;48.804;9.252;2022-12-22T00:01:37;9.90;76.70
70734;DHT22;58320;48.804;9.252;2022-12-22T00:04:22;9.90;76.80
70734;DHT22;58320;48.804;9.252;2022-12-22T00:07:06;9.90;76.70
70734;DHT22;58320;48.804;9.252;2022-12-22T00:09:50;9.90;76.70
70734;DHT22;58320;48.804;9.252;2022-12-22T00:12:35;9.90;76.70
70734;DHT22;58320;48.804;9.252;2022-12-22T00:15:20;9.90;76.50
70734;DHT22;58320;48.804;9.252;2022-12-22T00:18:07;10.00;76.20
70734;DHT22;58320;48.804;9.252;2022-12-22T00:20:57;10.00;76.10
70734;DHT22;58320;48.804;9.252;2022-12-22T00:23:41;10.00;76.10
70734;DHT22;58320;48.804;9.252;2022-12-22T00:26:25;10.00;76.20
70734;DHT22;58320;48.804;9.252;2022-12-22T00:29:14;10.00;76.20
70734;DHT22;58320;48.804;9.252;2022-12-22T00:31:59;10.00;76.30
70734;DHT22;58320;48.804;9.252;2022-12-22T00:34:45;10.00;76.40
70734;DHT22;58320;48.804;9.252;2022-12-22T00:37:32;9.90;76.60
70734;DHT22;58320;48.804;9.252;2022-12-22T00:40:20;9.90;76.80
70734;DHT22;58320;48.804;9.252;2022-12-22T00:43:06;9.90;77.00
70734;DHT22;58320;48.804;9.252;2022-12-22T00:45:51;9.90;77.30
70734;DHT22;58320;48.804;9.252;2022-12-22T00:48:38;9.90;77.80
70734;DHT22;58320;48.804;9.252;2022-12-22T00:51:23;9.80;78.00
70734;DHT22;58320;48.804;9.252;2022-12-22T00:54:08;9.80;78.30
70734;DHT22;58320;48.804;9.252;2022-12-22T00:56:54;9.80;79.00
70734;DHT22;58320;48.804;9.252;2022-12-22T00:59:39;9.70;79.20
70734;DHT22;58320;48.804;9.252;2022-12-22T01:02:23;9.70;81.60
70734;DHT22;58320;48.804;9.252;2022-12-22T01:05:08;9.50;86.00
70734;DHT22;58320;48.804;9.252;2022-12-22T01:07:53;9.20;89.30
70734;DHT22;58320;48.804;9.252;2022-12-22T01:10:37;9.00;92.70
70734;DHT22;58320;48.804;9.252;2022-12-22T01:13:22;8.80;94.30
70734;DHT22;58320;48.804;9.252;2022-12-22T01:16:10;8.80;94.90
70734;DHT22;58320;48.804;9.252;2022-12-22T01:18:55;8.90;93.10
70734;DHT22;58320;48.804;9.252;2022-12-22T01:21:40;8.90;91.60
70734;DHT22;58320;48.804;9.252;2022-12-22T01:24:25;9.00;91.20
70734;DHT22;58320;48.804;9.252;2022-12-22T01:27:11;9.10;90.30
70734;DHT22;58320;48.804;9.252;2022-12-22T01:29:58;9.20;89.30
70734;DHT22;58320;48.804;9.252;2022-12-22T01:32:42;9.30;89.00
70734;DHT22;58320;48.804;9.252;2022-12-22T01:35:29;9.30;87.60
70734;DHT22;58320;48.804;9.252;2022-12-22T01:38:16;9.40;87.00
70734;DHT22;58320;48.804;9.252;2022-12-22T01:41:02;9.50;87.00
70734;DHT22;58320;48.804;9.252;2022-12-22T01:43:47;9.50;86.60
70734;DHT22;58320;48.804;9.252;2022-12-22T01:46:43;9.50;86.50
70734;DHT22;58320;48.804;9.252;2022-12-22T01:49:40;9.50;87.20
70734;DHT22;58320;48.804;9.252;2022-12-22T01:52:31;9.60;87.90
70734;DHT22;58320;48.804;9.252;2022-12-22T01:55:23;9.60;89.00
70734;DHT22;58320;48.804;9.252;2022-12-22T01:58:15;9.50;90.00
70734;DHT22;58320;48.804;9.252;2022-12-22T02:01:04;9.40;89.90
70734;DHT22;58320;48.804;9.252;2022-12-22T02:03:48;9.40;89.50
70734;DHT22;58320;48.804;9.252;2022-12-22T02:06:36;9.40;89.80
70734;DHT22;58320;48.804;9.252;2022-12-22T02:09:53;9.40;89.50
70734;DHT22;58320;48.804;9.252;2022-12-22T02:12:59;9.40;89.40
70734;DHT22;58320;48.804;9.252;2022-12-22T02:16:06;9.40;88.80
70734;DHT22;58320;48.804;9.252;2022-12-22T02:19:11;9.40;88.60
70734;DHT22;58320;48.804;9.252;2022-12-22T02:22:20;9.50;88.40
70734;DHT22;58320;48.804;9.252;2022-12-22T02:25:16;9.50;88.70
70734;DHT22;58320;48.804;9.252;2022-12-22T02:28:05;9.50;87.90
70734;DHT22;58320;48.804;9.252;2022-12-22T02:30:50;9.60;87.50
70734;DHT22;58320;48.804;9.252;2022-12-22T02:33:35;9.60;87.20
70734;DHT22;58320;48.804;9.252;2022-12-22T02:40:10;9.60;86.90
70734;DHT22;58320;48.804;9.252;2022-12-22T02:43:13;9.70;86.30
70734;DHT22;58320;48.804;9.252;2022-12-22T02:46:23;9.80;86.30
70734;DHT22;58320;48.804;9.252;2022-12-22T02:49:21;9.90;85.70
70734;DHT22;58320;48.804;9.252;2022-12-22T02:52:18;9.90;85.60
70734;DHT22;58320;48.804;9.252;2022-12-22T02:55:06;9.90;85.90
70734;DHT22;58320;48.804;9.252;2022-12-22T02:57:51;10.00;85.90
70734;DHT22;58320;48.804;9.252;2022-12-22T03:00:37;10.00;86.40
70734;DHT22;58320;48.804;9.252;2022-12-22T03:03:22;10.00;86.40
70734;DHT22;58320;48.804;9.252;2022-12-22T03:06:06;10.00;86.40
70734;DHT22;58320;48.804;9.252;2022-12-22T03:08:50;10.00;86.40
70734;DHT22;58320;48.804;9.252;2022-12-22T03:11:34;10.00;86.20
70734;DHT22;58320;48.804;9.252;2022-12-22T03:14:19;10.10;86.20
70734;DHT22;58320;48.804;9.252;2022-12-22T03:17:03;10.10;86.20
70734;DHT22;58320;48.804;9.252;2022-12-22T03:19:47;10.10;86.10
70734;DHT22;58320;48.804;9.252;2022-12-22T03:22:31;10.00;86.40
70734;DHT22;58320;48.804;9.252;2022-12-22T03:25:15;10.10;86.20
70734;DHT22;58320;48.804;9.252;2022-12-22T03:28:05;10.00;86.70
70734;DHT22;58320;48.804;9.252;2022-12-22T03:30:32;9.90;87.00
70734;DHT22;58320;48.804;9.252;2022-12-22T03:32:58;9.80;87.60
70734;DHT22;58320;48.804;9.252;2022-12-22T03:35:24;9.80;87.40
70734;DHT22;58320;48.804;9.252;2022-12-22T03:37:51;9.80;87.50
70734;DHT22;58320;48.804;9.252;2022-12-22T03:40:17;9.80;87.60
70734;DHT22;58320;48.804;9.252;2022-12-22T03:42:43;9.80;87.60
70734;DHT22;58320;48.804;9.252;2022-12-22T03:45:27;9.90;87.30
70734;DHT22;58320;48.804;9.252;2022-12-22T03:48:11;9.90;87.70
70734;DHT22;58320;48.804;9.252;2022-12-22T03:50:37;9.90;87.70
70734;DHT22;58320;48.804;9.252;2022-12-22T03:53:04;9.90;87.40
70734;DHT22;58320;48.804;9.252;2022-12-22T03:55:30;10.00;87.10
70734;DHT22;58320;48.804;9.252;2022-12-22T03:57:55;10.00;86.90
70734;DHT22;58320;48.804;9.252;2022-12-22T04:00:21;10.00;86.90
70734;DHT22;58320;48.804;9.252;2022-12-22T04:02:47;10.00;86.70
70734;DHT22;58320;48.804;9.252;2022-12-22T04:05:13;10.00;86.20
70734;DHT22;58320;48.804;9.252;2022-12-22T04:07:39;10.10;85.90
70734;DHT22;58320;48.804;9.252;2022-12-22T04:10:06;10.10;85.50
70734;DHT22;58320;48.804;9.252;2022-12-22T04:12:51;10.20;84.80
70734;DHT22;58320;48.804;9.252;2022-12-22T04:15:25;10.30;84.50
70734;DHT22;58320;48.804;9.252;2022-12-22T04:17:52;10.30;84.40
70734;DHT22;58320;48.804;9.252;2022-12-22T04:20:19;10.30;84.60
70734;DHT22;58320;48.804;9.252;2022-12-22T04:22:46;10.30;84.50
70734;DHT22;58320;48.804;9.252;2022-12-22T04:25:13;10.30;84.40
70734;DHT22;58320;48.804;9.252;2022-12-22T04:27:40;10.30;84.10
70734;DHT22;58320;48.804;9.252;2022-12-22T04:30:07;10.30;84.20
70734;DHT22;58320;48.804;9.252;2022-12-22T04:32:33;10.30;84.40
70734;DHT22;58320;48.804;9.252;2022-12-22T04:34:59;10.30;84.50
70734;DHT22;58320;48.804;9.252;2022-12-22T04:37:25;10.30;85.30
70734;DHT22;58320;48.804;9.252;2022-12-22T04:39:51;10.20;85.70
70734;DHT22;58320;48.804;9.252;2022-12-22T04:42:16;10.20;86.00
70734;DHT22;58320;48.804;9.252;2022-12-22T04:44:42;10.20;86.20
70734;DHT22;58320;48.804;9.252;2022-12-22T04:47:08;10.20;86.70
70734;DHT22;58320;48.804;9.252;2022-12-22T04:49:34;10.10;87.20
70734;DHT22;58320;48.804;9.252;2022-12-22T04:51:59;10.20;86.10
70734;DHT22;58320;48.804;9.252;2022-12-22T04:54:25;10.20;85.30
70734;DHT22;58320;48.804;9.252;2022-12-22T04:56:51;10.30;84.60
70734;DHT22;58320;48.804;9.252;2022-12-22T04:59:17;10.30;83.90
70734;DHT22;58320;48.804;9.252;2022-12-22T05:01:43;10.40;83.70
70734;DHT22;58320;48.804;9.252;2022-12-22T05:04:09;10.40;83.50
70734;DHT22;58320;48.804;9.252;2022-12-22T05:06:35;10.50;82.70
70734;DHT22;58320;48.804;9.252;2022-12-22T05:09:00;10.50;82.50
70734;DHT22;58320;48.804;9.252;2022-12-22T05:11:26;10.50;81.80
70734;DHT22;58320;48.804;9.252;2022-12-22T05:13:52;10.60;81.60
70734;DHT22;58320;48.804;9.252;2022-12-22T05:16:18;10.70;81.50
70734;DHT22;58320;48.804;9.252;2022-12-22T05:18:44;10.70;81.20
70734;DHT22;58320;48.804;9.252;2022-12-22T05:21:16;10.70;81.00
70734;DHT22;58320;48.804;9.252;2022-12-22T05:23:44;10.70;80.70
70734;DHT22;58320;48.804;9.252;2022-12-22T05:26:10;10.80;81.00
70734;DHT22;58320;48.804;9.252;2022-12-22T05:28:39;10.80;80.50
70734;DHT22;58320;48.804;9.252;2022-12-22T05:31:11;10.80;80.00
70734;DHT22;58320;48.804;9.252;2022-12-22T05:33:40;10.80;80.30
70734;DHT22;58320;48.804;9.252;2022-12-22T05:36:06;10.90;80.40
70734;DHT22;58320;48.804;9.252;2022-12-22T05:38:32;10.80;80.80
70734;DHT22;58320;48.804;9.252;2022-12-22T05:40:58;10.80;81.10
70734;DHT22;58320;48.804;9.252;2022-12-22T05:43:23;10.80;81.40
70734;DHT22;58320;48.804;9.252;2022-12-22T05:45:49;10.80;81.40
70734;DHT22;58320;48.804;9.252;2022-12-22T05:48:15;10.70;82.10
70734;DHT22;58320;48.804;9.252;2022-12-22T05:50:41;10.70;81.80
70734;DHT22;58320;48.804;9.252;2022-12-22T05:53:07;10.70;82.10
70734;DHT22;58320;48.804;9.252;2022-12-22T05:55:33;10.70;82.10
70734;DHT22;58320;48.804;9.252;2022-12-22T05:57:59;10.70;82.20
70734;DHT22;58320;48.804;9.252;2022-12-22T06:00:28;10.70;82.10
70734;DHT22;58320;48.804;9.252;2022-12-22T06:02:54;10.70;82.60
70734;DHT22;58320;48.804;9.252;2022-12-22T06:05:20;10.60;82.90
70734;DHT22;58320;48.804;9.252;2022-12-22T06:07:46;10.60;83.20
70734;DHT22;58320;48.804;9.252;2022-12-22T06:10:12;10.50;83.70
70734;DHT22;58320;48.804;9.252;2022-12-22T06:12:40;10.40;84.10
70734;DHT22;58320;48.804;9.252;2022-12-22T06:15:07;10.30;84.70
70734;DHT22;58320;48.804;9.252;2022-12-22T06:17:35;10.20;85.10
70734;DHT22;58320;48.804;9.252;2022-12-22T06:20:01;10.20;85.50
70734;DHT22;58320;48.804;9.252;2022-12-22T06:22:27;10.10;85.40
70734;DHT22;58320;48.804;9.252;2022-12-22T06:24:53;10.20;85.10
70734;DHT22;58320;48.804;9.252;2022-12-22T06:27:19;10.30;84.30
70734;DHT22;58320;48.804;9.252;2022-12-22T06:29:44;10.20;84.50
70734;DHT22;58320;48.804;9.252;2022-12-22T06:32:10;10.10;84.60
70734;DHT22;58320;48.804;9.252;2022-12-22T06:34:36;10.10;84.50
70734;DHT22;58320;48.804;9.252;2022-12-22T06:37:02;10.10;84.30
70734;DHT22;58320;48.804;9.252;2022-12-22T06:39:27;10.10;84.00
70734;DHT22;58320;48.804;9.252;2022-12-22T06:41:53;10.20;83.50
70734;DHT22;58320;48.804;9.252;2022-12-22T06:44:37;10.20;83.30
70734;DHT22;58320;48.804;9.252;2022-12-22T06:47:03;10.20;83.00
70734;DHT22;58320;48.804;9.252;2022-12-22T06:49:29;10.20;83.10
70734;DHT22;58320;48.804;9.252;2022-12-22T06:51:54;10.20;82.90
70734;DHT22;58320;48.804;9.252;2022-12-22T06:54:20;10.20;83.00
70734;DHT22;58320;48.804;9.252;2022-12-22T06:56:46;10.30;82.60
70734;DHT22;58320;48.804;9.252;2022-12-22T06:59:12;10.30;82.20
70734;DHT22;58320;48.804;9.252;2022-12-22T07:01:38;10.30;81.70
70734;DHT22;58320;48.804;9.252;2022-12-22T07:04:04;10.40;81.30
70734;DHT22;58320;48.804;9.252;2022-12-22T07:06:30;10.50;80.00
70734;DHT22;58320;48.804;9.252;2022-12-22T07:08:56;10.60;79.80
70734;DHT22;58320;48.804;9.252;2022-12-22T07:11:21;10.50;79.50
70734;DHT22;58320;48.804;9.252;2022-12-22T07:13:47;10.50;79.50
70734;DHT22;58320;48.804;9.252;2022-12-22T07:16:13;10.50;79.80
70734;DHT22;58320;48.804;9.252;2022-12-22T07:18:40;10.40;81.10
70734;DHT22;58320;48.804;9.252;2022-12-22T07:21:11;10.40;80.40
70734;DHT22;58320;48.804;9.252;2022-12-22T07:23:38;10.30;80.50
70734;DHT22;58320;48.804;9.252;2022-12-22T07:26:06;10.30;80.20
70734;DHT22;58320;48.804;9.252;2022-12-22T07:28:35;10.30;79.90
70734;DHT22;58320;48.804;9.252;2022-12-22T07:31:02;10.30;79.70
70734;DHT22;58320;48.804;9.252;2022-12-22T07:33:28;10.30;79.20
70734;DHT22;58320;48.804;9.252;2022-12-22T07:36:10;10.30;78.80
70734;DHT22;58320;48.804;9.252;2022-12-22T07:38:40;10.30;78.60
70734;DHT22;58320;48.804;9.252;2022-12-22T07:41:08;10.40;78.20
70734;DHT22;58320;48.804;9.252;2022-12-22T07:43:56;10.50;77.40
70734;DHT22;58320;48.804;9.252;2022-12-22T07:46:24;10.70;77.00
70734;DHT22;58320;48.804;9.252;2022-12-22T07:48:52;10.70;77.20
70734;DHT22;58320;48.804;9.252;2022-12-22T07:51:38;10.60;76.80
70734;DHT22;58320;48.804;9.252;2022-12-22T07:54:07;10.70;76.50
70734;DHT22;58320;48.804;9.252;2022-12-22T07:56:34;10.80;75.50
70734;DHT22;58320;48.804;9.252;2022-12-22T07:59:00;10.80;75.20
70734;DHT22;58320;48.804;9.252;2022-12-22T08:01:26;10.90;75.50
70734;DHT22;58320;48.804;9.252;2022-12-22T08:03:52;10.90;75.40
70734;DHT22;58320;48.804;9.252;2022-12-22T08:06:19;10.90;76.30
70734;DHT22;58320;48.804;9.252;2022-12-22T08:08:45;10.70;77.10
70734;DHT22;58320;48.804;9.252;2022-12-22T08:11:11;10.60;77.20
70734;DHT22;58320;48.804;9.252;2022-12-22T08:13:37;10.60;77.50
70734;DHT22;58320;48.804;9.252;2022-12-22T08:16:08;10.60;77.00
70734;DHT22;58320;48.804;9.252;2022-12-22T08:18:35;10.70;77.40
70734;DHT22;58320;48.804;9.252;2022-12-22T08:21:03;10.80;77.30
70734;DHT22;58320;48.804;9.252;2022-12-22T08:23:30;10.80;77.10
70734;DHT22;58320;48.804;9.252;2022-12-22T08:26:03;10.80;76.90
70734;DHT22;58320;48.804;9.252;2022-12-22T08:28:37;10.90;76.60
70734;DHT22;58320;48.804;9.252;2022-12-22T08:31:15;11.00;76.60
70734;DHT22;58320;48.804;9.252;2022-12-22T08:33:41;11.00;76.10
70734;DHT22;58320;48.804;9.252;2022-12-22T08:36:08;11.10;76.10
70734;DHT22;58320;48.804;9.252;2022-12-22T08:38:36;11.10;76.30
70734;DHT22;58320;48.804;9.252;2022-12-22T08:41:04;11.10;76.20
70734;DHT22;58320;48.804;9.252;2022-12-22T08:43:31;11.00;76.30
70734;DHT22;58320;48.804;9.252;2022-12-22T08:45:57;11.00;76.80
70734;DHT22;58320;48.804;9.252;2022-12-22T08:48:23;11.00;76.90
70734;DHT22;58320;48.804;9.252;2022-12-22T08:50:49;11.10;76.90
70734;DHT22;58320;48.804;9.252;2022-12-22T08:53:15;11.10;77.00
70734;DHT22;58320;48.804;9.252;2022-12-22T08:55:52;11.20;77.10
70734;DHT22;58320;48.804;9.252;2022-12-22T08:58:19;11.10;76.80
70734;DHT22;58320;48.804;9.252;2022-12-22T09:00:45;11.10;76.20
70734;DHT22;58320;48.804;9.252;2022-12-22T09:03:12;11.00;76.90
70734;DHT22;58320;48.804;9.252;2022-12-22T09:05:38;11.00;76.90
70734;DHT22;58320;48.804;9.252;2022-12-22T09:08:04;11.00;77.00
70734;DHT22;58320;48.804;9.252;2022-12-22T09:10:30;11.00;76.60
70734;DHT22;58320;48.804;9.252;2022-12-22T09:12:57;11.10;76.10
70734;DHT22;58320;48.804;9.252;2022-12-22T09:15:22;11.30;75.00
70734;DHT22;58320;48.804;9.252;2022-12-22T09:17:48;11.60;73.50
70734;DHT22;58320;48.804;9.252;2022-12-22T09:20:14;11.90;72.10
70734;DHT22;58320;48.804;9.252;2022-12-22T09:22:40;12.00;71.10
70734;DHT22;58320;48.804;9.252;2022-12-22T09:25:06;11.90;75.80
70734;DHT22;58320;48.804;9.252;2022-12-22T09:27:32;11.30;79.90
70734;DHT22;58320;48.804;9.252;2022-12-22T09:29:58;10.60;85.30
70734;DHT22;58320;48.804;9.252;2022-12-22T09:32:24;10.10;89.20
70734;DHT22;58320;48.804;9.252;2022-12-22T09:34:50;9.80;91.20
70734;DHT22;58320;48.804;9.252;2022-12-22T09:37:16;9.70;93.40
70734;DHT22;58320;48.804;9.252;2022-12-22T09:39:42;9.60;95.30
70734;DHT22;58320;48.804;9.252;2022-12-22T09:42:18;9.50;95.50
70734;DHT22;58320;48.804;9.252;2022-12-22T09:44:46;9.50;95.50
70734;DHT22;58320;48.804;9.252;2022-12-22T09:49:48;9.40;98.20
70734;DHT22;58320;48.804;9.252;2022-12-22T09:54:59;9.40;98.40
70734;DHT22;58320;48.804;9.252;2022-12-22T09:57:30;9.40;98.30
70734;DHT22;58320;48.804;9.252;2022-12-22T10:00:13;9.40;98.40
70734;DHT22;58320;48.804;9.252;2022-12-22T10:03:03;9.40;98.20
70734;DHT22;58320;48.804;9.252;2022-12-22T10:05:53;9.40;98.60
70734;DHT22;58320;48.804;9.252;2022-12-22T10:08:33;9.40;98.80
70734;DHT22;58320;48.804;9.252;2022-12-22T10:11:00;9.50;98.10
70734;DHT22;58320;48.804;9.252;2022-12-22T10:13:25;9.50;97.00
70734;DHT22;58320;48.804;9.252;2022-12-22T10:15:51;9.60;96.60
70734;DHT22;58320;48.804;9.252;2022-12-22T10:18:26;9.70;95.70
70734;DHT22;58320;48.804;9.252;2022-12-22T10:21:14;9.80;93.80
70734;DHT22;58320;48.804;9.252;2022-12-22T10:23:44;10.00;90.40
70734;DHT22;58320;48.804;9.252;2022-12-22T10:26:25;10.20;89.50
70734;DHT22;58320;48.804;9.252;2022-12-22T10:29:06;10.30;88.30
70734;DHT22;58320;48.804;9.252;2022-12-22T10:31:36;10.40;88.50
70734;DHT22;58320;48.804;9.252;2022-12-22T10:34:19;10.50;87.60
70734;DHT22;58320;48.804;9.252;2022-12-22T10:36:50;10.50;87.10
70734;DHT22;58320;48.804;9.252;2022-12-22T10:39:32;10.50;87.40
70734;DHT22;58320;48.804;9.252;2022-12-22T10:42:12;10.40;88.30
70734;DHT22;58320;48.804;9.252;2022-12-22T10:44:39;10.30;90.30
70734;DHT22;58320;48.804;9.252;2022-12-22T10:47:18;10.20;91.50
70734;DHT22;58320;48.804;9.252;2022-12-22T10:49:54;10.10;91.30
70734;DHT22;58320;48.804;9.252;2022-12-22T10:52:26;10.10;93.20
70734;DHT22;58320;48.804;9.252;2022-12-22T10:55:13;10.10;93.50
70734;DHT22;58320;48.804;9.252;2022-12-22T10:57:40;10.10;92.40
70734;DHT22;58320;48.804;9.252;2022-12-22T11:00:30;10.00;92.70
70734;DHT22;58320;48.804;9.252;2022-12-22T11:02:58;10.00;92.10
70734;DHT22;58320;48.804;9.252;2022-12-22T11:05:26;10.10;91.60
70734;DHT22;58320;48.804;9.252;2022-12-22T11:07:53;10.10;91.80
70734;DHT22;58320;48.804;9.252;2022-12-22T11:10:32;10.10;91.20
70734;DHT22;58320;48.804;9.252;2022-12-22T11:16:28;10.30;89.50
70734;DHT22;58320;48.804;9.252;2022-12-22T11:19:15;10.40;87.00
70734;DHT22;58320;48.804;9.252;2022-12-22T11:40:16;10.90;83.40
70734;DHT22;58320;48.804;9.252;2022-12-22T11:45:52;11.10;83.00
70734;DHT22;58320;48.804;9.252;2022-12-22T11:57:27;11.20;82.60
70734;DHT22;58320;48.804;9.252;2022-12-22T12:00:12;11.30;81.10
70734;DHT22;58320;48.804;9.252;2022-12-22T12:16:57;12.30;74.90
70734;DHT22;58320;48.804;9.252;2022-12-22T12:28:36;13.40;71.20
70734;DHT22;58320;48.804;9.252;2022-12-22T12:31:23;14.90;65.80
70734;DHT22;58320;48.804;9.252;2022-12-22T12:33:56;15.70;63.20
70734;DHT22;58320;48.804;9.252;2022-12-22T12:40:10;14.60;64.30
70734;DHT22;58320;48.804;9.252;2022-12-22T12:43:01;14.30;66.10
70734;DHT22;58320;48.804;9.252;2022-12-22T12:45:40;14.00;66.80
70734;DHT22;58320;48.804;9.252;2022-12-22T12:50:55;13.40;68.70
70734;DHT22;58320;48.804;9.252;2022-12-22T12:53:23;13.10;70.00
70734;DHT22;58320;48.804;9.252;2022-12-22T13:01:09;12.60;71.80
70734;DHT22;58320;48.804;9.252;2022-12-22T13:06:06;12.50;72.10
70734;DHT22;58320;48.804;9.252;2022-12-22T13:11:35;12.60;71.20
70734;DHT22;58320;48.804;9.252;2022-12-22T13:14:02;12.60;71.00
70734;DHT22;58320;48.804;9.252;2022-12-22T13:16:31;12.70;71.10
70734;DHT22;58320;48.804;9.252;2022-12-22T13:19:02;12.60;71.20
70734;DHT22;58320;48.804;9.252;2022-12-22T13:21:43;12.60;71.20
70734;DHT22;58320;48.804;9.252;2022-12-22T13:26:40;12.50;71.00
70734;DHT22;58320;48.804;9.252;2022-12-22T13:29:28;12.50;71.60
70734;DHT22;58320;48.804;9.252;2022-12-22T13:32:25;12.40;71.70
70734;DHT22;58320;48.804;9.252;2022-12-22T13:38:36;12.30;72.30
70734;DHT22;58320;48.804;9.252;2022-12-22T13:41:12;12.30;72.80
70734;DHT22;58320;48.804;9.252;2022-12-22T13:43:41;12.30;73.00
70734;DHT22;58320;48.804;9.252;2022-12-22T13:46:09;12.30;72.90
70734;DHT22;58320;48.804;9.252;2022-12-22T13:48:39;12.40;72.80
70734;DHT22;58320;48.804;9.252;2022-12-22T13:51:11;12.50;72.30
70734;DHT22;58320;48.804;9.252;2022-12-22T13:53:49;12.60;72.20
70734;DHT22;58320;48.804;9.252;2022-12-22T13:56:32;12.70;71.60
70734;DHT22;58320;48.804;9.252;2022-12-22T13:59:01;12.80;71.30
70734;DHT22;58320;48.804;9.252;2022-12-22T14:01:28;12.70;71.40
70734;DHT22;58320;48.804;9.252;2022-12-22T14:03:59;12.60;72.10
70734;DHT22;58320;48.804;9.252;2022-12-22T14:06:39;12.50;72.40
70734;DHT22;58320;48.804;9.252;2022-12-22T14:14:34;12.30;72.40
70734;DHT22;58320;48.804;9.252;2022-12-22T14:17:02;12.30;72.40
70734;DHT22;58320;48.804;9.252;2022-12-22T14:19:36;12.30;71.60
70734;DHT22;58320;48.804;9.252;2022-12-22T14:22:17;12.30;71.30
70734;DHT22;58320;48.804;9.252;2022-12-22T14:24:50;12.40;71.20
70734;DHT22;58320;48.804;9.252;2022-12-22T14:29:54;12.60;69.50
70734;DHT22;58320;48.804;9.252;2022-12-22T14:32:41;12.70;69.30
70734;DHT22;58320;48.804;9.252;2022-12-22T14:37:47;12.80;69.00
70734;DHT22;58320;48.804;9.252;2022-12-22T14:40:30;12.90;68.70
70734;DHT22;58320;48.804;9.252;2022-12-22T14:42:59;12.80;68.90
70734;DHT22;58320;48.804;9.252;2022-12-22T14:45:27;12.70;69.10
70734;DHT22;58320;48.804;9.252;2022-12-22T14:47:54;12.70;69.40
70734;DHT22;58320;48.804;9.252;2022-12-22T14:50:25;12.60;69.40
70734;DHT22;58320;48.804;9.252;2022-12-22T14:52:57;12.50;70.00
70734;DHT22;58320;48.804;9.252;2022-12-22T14:55:31;12.50;70.20
70734;DHT22;58320;48.804;9.252;2022-12-22T15:00:38;12.30;70.10
70734;DHT22;58320;48.804;9.252;2022-12-22T15:05:52;12.10;71.30
70734;DHT22;58320;48.804;9.252;2022-12-22T15:08:41;11.90;71.90
70734;DHT22;58320;48.804;9.252;2022-12-22T15:11:13;11.80;72.60
70734;DHT22;58320;48.804;9.252;2022-12-22T15:13:42;11.80;72.90
70734;DHT22;58320;48.804;9.252;2022-12-22T15:16:20;11.70;73.20
70734;DHT22;58320;48.804;9.252;2022-12-22T15:18:48;11.60;73.30
70734;DHT22;58320;48.804;9.252;2022-12-22T15:21:15;11.50;73.70
70734;DHT22;58320;48.804;9.252;2022-12-22T15:23:42;11.50;74.20
70734;DHT22;58320;48.804;9.252;2022-12-22T15:26:09;11.40;74.60
70734;DHT22;58320;48.804;9.252;2022-12-22T15:28:35;11.40;74.70
70734;DHT22;58320;48.804;9.252;2022-12-22T15:31:02;11.30;75.20
70734;DHT22;58320;48.804;9.252;2022-12-22T15:33:36;11.30;75.30
70734;DHT22;58320;48.804;9.252;2022-12-22T15:36:02;11.30;75.30
70734;DHT22;58320;48.804;9.252;2022-12-22T15:38:28;11.30;75.40
70734;DHT22;58320;48.804;9.252;2022-12-22T15:40:54;11.20;75.60
70734;DHT22;58320;48.804;9.252;2022-12-22T15:43:19;11.20;75.80
70734;DHT22;58320;48.804;9.252;2022-12-22T15:45:45;11.20;75.80
70734;DHT22;58320;48.804;9.252;2022-12-22T15:48:32;11.10;76.40
70734;DHT22;58320;48.804;9.252;2022-12-22T15:51:00;11.10;76.60
70734;DHT22;58320;48.804;9.252;2022-12-22T15:53:27;11.00;76.90
70734;DHT22;58320;48.804;9.252;2022-12-22T15:55:53;11.00;77.00
70734;DHT22;58320;48.804;9.252;2022-12-22T15:58:25;11.00;77.10
70734;DHT22;58320;48.804;9.252;2022-12-22T16:00:53;11.00;77.50
70734;DHT22;58320;48.804;9.252;2022-12-22T16:03:19;10.90;77.40
70734;DHT22;58320;48.804;9.252;2022-12-22T16:05:45;10.90;77.60
70734;DHT22;58320;48.804;9.252;2022-12-22T16:08:38;10.90;77.90
70734;DHT22;58320;48.804;9.252;2022-12-22T16:11:03;10.80;78.00
70734;DHT22;58320;48.804;9.252;2022-12-22T16:13:30;10.80;78.30
70734;DHT22;58320;48.804;9.252;2022-12-22T16:15:56;10.80;78.50
70734;DHT22;58320;48.804;9.252;2022-12-22T16:18:22;10.70;78.60
70734;DHT22;58320;48.804;9.252;2022-12-22T16:20:49;10.70;78.60
70734;DHT22;58320;48.804;9.252;2022-12-22T16:23:18;10.60;78.90
70734;DHT22;58320;48.804;9.252;2022-12-22T16:25:45;10.50;79.00
70734;DHT22;58320;48.804;9.252;2022-12-22T16:28:18;10.50;79.10
70734;DHT22;58320;48.804;9.252;2022-12-22T16:30:45;10.50;79.20
70734;DHT22;58320;48.804;9.252;2022-12-22T16:33:12;10.50;79.20
70734;DHT22;58320;48.804;9.252;2022-12-22T16:35:38;10.40;79.20
70734;DHT22;58320;48.804;9.252;2022-12-22T16:38:05;10.40;79.20
70734;DHT22;58320;48.804;9.252;2022-12-22T16:40:32;10.30;79.30
70734;DHT22;58320;48.804;9.252;2022-12-22T16:43:13;10.30;79.30
70734;DHT22;58320;48.804;9.252;2022-12-22T16:45:48;10.20;79.10
70734;DHT22;58320;48.804;9.252;2022-12-22T16:48:24;10.20;79.10
70734;DHT22;58320;48.804;9.252;2022-12-22T16:50:54;10.20;79.20
70734;DHT22;58320;48.804;9.252;2022-12-22T16:53:20;10.20;79.20
70734;DHT22;58320;48.804;9.252;2022-12-22T16:55:46;10.20;79.00
70734;DHT22;58320;48.804;9.252;2022-12-22T16:58:11;10.10;78.80
70734;DHT22;58320;48.804;9.252;2022-12-22T17:00:38;10.20;78.10
70734;DHT22;58320;48.804;9.252;2022-12-22T17:03:14;10.20;78.20
70734;DHT22;58320;48.804;9.252;2022-12-22T17:05:44;10.20;78.40
70734;DHT22;58320;48.804;9.252;2022-12-22T17:08:19;10.20;78.10
70734;DHT22;58320;48.804;9.252;2022-12-22T17:10:54;10.30;77.80
70734;DHT22;58320;48.804;9.252;2022-12-22T17:13:21;10.40;77.70
70734;DHT22;58320;48.804;9.252;2022-12-22T17:15:47;10.40;77.70
70734;DHT22;58320;48.804;9.252;2022-12-22T17:18:18;10.40;77.50
70734;DHT22;58320;48.804;9.252;2022-12-22T17:20:47;10.50;77.50
70734;DHT22;58320;48.804;9.252;2022-12-22T17:23:37;10.50;77.50
70734;DHT22;58320;48.804;9.252;2022-12-22T17:26:06;10.50;77.50
70734;DHT22;58320;48.804;9.252;2022-12-22T17:28:35;10.50;77.60
70734;DHT22;58320;48.804;9.252;2022-12-22T17:31:01;10.40;77.80
70734;DHT22;58320;48.804;9.252;2022-12-22T17:33:27;10.40;78.00
70734;DHT22;58320;48.804;9.252;2022-12-22T17:35:55;10.40;78.20
70734;DHT22;58320;48.804;9.252;2022-12-22T17:38:22;10.40;78.30
70734;DHT22;58320;48.804;9.252;2022-12-22T17:40:51;10.40;78.50
70734;DHT22;58320;48.804;9.252;2022-12-22T17:43:18;10.30;79.10
70734;DHT22;58320;48.804;9.252;2022-12-22T17:45:46;10.30;79.30
70734;DHT22;58320;48.804;9.252;2022-12-22T17:48:13;10.30;79.50
70734;DHT22;58320;48.804;9.252;2022-12-22T17:50:41;10.30;79.70
70734;DHT22;58320;48.804;9.252;2022-12-22T17:53:13;10.40;79.60
70734;DHT22;58320;48.804;9.252;2022-12-22T17:55:42;10.40;80.90
70734;DHT22;58320;48.804;9.252;2022-12-22T17:58:13;10.30;83.50
70734;DHT22;58320;48.804;9.252;2022-12-22T18:00:40;10.20;84.50